createdAt,value
2024-04-21T00:02:13.617Z,97796.66
2024-04-21T00:04:41.455Z,97795.41
2024-04-21T00:07:09.424Z,97796.28
2024-04-21T00:09:37.141Z,97797.56
2024-04-21T00:12:05.495Z,97793.81
2024-04-21T00:14:33.382Z,97789.09
2024-04-21T00:17:01.121Z,97787.72
2024-04-21T00:19:29.014Z,97782.16
2024-04-21T00:21:56.755Z,97775.78
2024-04-21T00:24:29.558Z,97776.47
2024-04-21T00:26:58.161Z,97774.66
2024-04-21T00:29:25.829Z,97768.66
2024-04-21T00:31:53.581Z,97768.50
2024-04-21T00:34:21.396Z,97768.22
2024-04-21T00:36:49.097Z,97764.28
2024-04-21T00:39:16.778Z,97762.22
2024-04-21T00:41:44.554Z,97751.03
2024-04-21T00:44:12.250Z,97751.03
2024-04-21T00:46:41.149Z,97749.63
2024-04-21T00:49:10.537Z,97754.78
2024-04-21T00:51:38.962Z,97748.22
2024-04-21T00:54:07.639Z,97748.50
2024-04-21T00:56:37.090Z,97740.44
2024-04-21T00:59:05.521Z,97744.22
2024-04-21T01:01:33.406Z,97740.31
2024-04-21T01:04:01.172Z,97740.44
2024-04-21T01:06:29.275Z,97735.91
2024-04-21T01:08:57.120Z,97732.00
2024-04-21T01:11:24.947Z,97729.22
2024-04-21T01:13:52.616Z,97723.69
2024-04-21T01:16:20.558Z,97718.97
2024-04-21T01:18:48.368Z,97722.88
2024-04-21T01:21:17.159Z,97715.34
2024-04-21T01:23:44.834Z,97717.84
2024-04-21T01:26:12.837Z,97717.84
2024-04-21T01:28:41.176Z,97715.75
2024-04-21T01:31:09.235Z,97709.19
2024-04-21T01:33:37.493Z,97716.13
2024-04-21T01:36:05.569Z,97715.28
2024-04-21T01:38:33.502Z,97710.09
2024-04-21T01:41:01.216Z,97708.19
2024-04-21T01:43:28.965Z,97713.91
2024-04-21T01:45:56.739Z,97712.81
2024-04-21T01:48:24.793Z,97710.47
2024-04-21T01:50:53.497Z,97712.28
2024-04-21T01:53:21.285Z,97697.94
2024-04-21T01:55:49.016Z,97704.06
2024-04-21T01:58:16.822Z,97697.50
2024-04-21T02:00:44.744Z,97693.78
2024-04-21T02:03:12.588Z,97690.44
2024-04-21T02:05:40.275Z,97688.31
2024-04-21T02:08:08.330Z,97686.22
2024-04-21T02:10:36.248Z,97671.22
2024-04-21T02:13:04.319Z,97678.59
2024-04-21T02:15:32.014Z,97687.03
2024-04-21T02:17:59.767Z,97674.88
2024-04-21T02:20:27.526Z,97675.63
2024-04-21T02:22:55.235Z,97668.16
2024-04-21T02:25:23.067Z,97683.97
2024-04-21T02:27:50.781Z,97672.81
2024-04-21T02:30:18.692Z,97674.19
2024-04-21T02:32:46.716Z,97665.47
2024-04-21T02:35:14.513Z,97673.81
2024-04-21T02:37:42.252Z,97674.19
2024-04-21T02:40:10.590Z,97659.16
2024-04-21T02:42:38.346Z,97651.38
2024-04-21T02:45:06.729Z,97652.19
2024-04-21T02:47:34.468Z,97650.06
2024-04-21T02:50:02.656Z,97639.66
2024-04-21T02:52:30.323Z,97633.50
2024-04-21T02:54:58.086Z,97629.56
2024-04-21T02:57:25.805Z,97634.34
2024-04-21T02:59:53.506Z,97631.84
2024-04-21T03:02:21.315Z,97628.25
2024-04-21T03:04:49.179Z,97625.34
2024-04-21T03:07:17.082Z,97621.44
2024-04-21T03:09:45.088Z,97616.69
2024-04-21T03:12:12.852Z,97622.06
2024-04-21T03:14:40.622Z,97615.72
2024-04-21T03:17:08.784Z,97608.63
2024-04-21T03:19:37.015Z,97617.69
2024-04-21T03:22:05.727Z,97608.78
2024-04-21T03:24:33.550Z,97612.56
2024-04-21T03:27:01.222Z,97609.47
2024-04-21T03:29:28.907Z,97603.50
2024-04-21T03:31:56.586Z,97605.59
2024-04-21T03:34:24.245Z,97604.06
2024-04-21T03:36:51.979Z,97607.00
2024-04-21T03:39:19.942Z,97603.91
2024-04-21T03:41:47.732Z,97601.63
2024-04-21T03:44:15.478Z,97604.84
2024-04-21T03:46:43.142Z,97597.97
2024-04-21T03:49:10.851Z,97597.09
2024-04-21T03:51:38.635Z,97604.47
2024-04-21T03:54:06.453Z,97596.84
2024-04-21T03:56:34.166Z,97598.22
2024-04-21T03:59:02.015Z,97601.78
2024-04-21T04:01:29.888Z,97602.03
2024-04-21T04:03:57.770Z,97602.19
2024-04-21T04:06:25.450Z,97601.91
2024-04-21T04:08:53.249Z,97602.03
2024-04-21T04:11:20.964Z,97603.59
2024-04-21T04:13:48.651Z,97615.09
2024-04-21T04:16:16.454Z,97607.13
2024-04-21T04:18:44.240Z,97618.47
2024-04-21T04:21:11.916Z,97614.16
2024-04-21T04:23:39.572Z,97608.41
2024-04-21T04:26:10.552Z,97611.13
2024-04-21T04:28:39.486Z,97616.53
2024-04-21T04:31:07.480Z,97611.81
2024-04-21T04:33:35.341Z,97617.44
2024-04-21T04:36:04.745Z,97605.97
2024-04-21T04:38:32.429Z,97608.28
2024-04-21T04:41:00.482Z,97611.41
2024-04-21T04:43:28.178Z,97617.63
2024-04-21T04:45:55.935Z,97610.47
2024-04-21T04:48:23.727Z,97613.75
2024-04-21T04:50:51.414Z,97613.38
2024-04-21T04:53:19.135Z,97621.81
2024-04-21T04:55:47.319Z,97626.72
2024-04-21T04:58:15.137Z,97621.44
2024-04-21T05:00:42.850Z,97623.31
2024-04-21T05:03:10.668Z,97621.50
2024-04-21T05:05:38.360Z,97624.13
2024-04-21T05:08:08.256Z,97632.50
2024-04-21T05:10:36.387Z,97636.22
2024-04-21T05:13:04.351Z,97629.28
2024-04-21T05:15:32.248Z,97637.31
2024-04-21T05:18:00.035Z,97630.19
2024-04-21T05:20:27.920Z,97635.53
2024-04-21T05:22:55.598Z,97628.63
2024-04-21T05:25:23.326Z,97632.22
2024-04-21T05:27:51.138Z,97627.81
2024-04-21T05:30:18.910Z,97639.97
2024-04-21T05:32:47.267Z,97630.06
2024-04-21T05:35:15.150Z,97623.75
2024-04-21T05:37:45.341Z,97626.78
2024-04-21T05:40:13.206Z,97624.53
2024-04-21T05:42:40.875Z,97634.97
2024-04-21T05:45:08.550Z,97638.94
2024-04-21T05:47:36.544Z,97638.63
2024-04-21T05:50:04.621Z,97635.28
2024-04-21T05:52:32.353Z,97630.91
2024-04-21T05:55:00.230Z,97629.69
2024-04-21T05:57:27.987Z,97635.72
2024-04-21T05:59:55.664Z,97639.16
2024-04-21T06:02:23.507Z,97632.53
2024-04-21T06:04:51.279Z,97646.19
2024-04-21T06:07:19.111Z,97644.75
2024-04-21T06:09:47.758Z,97637.97
2024-04-21T06:12:16.423Z,97647.31
2024-04-21T06:14:44.266Z,97642.13
2024-04-21T06:17:12.044Z,97643.00
2024-04-21T06:19:39.967Z,97645.34
2024-04-21T06:22:08.006Z,97635.78
2024-04-21T06:24:35.730Z,97639.63
2024-04-21T06:27:04.011Z,97639.47
2024-04-21T06:29:31.705Z,97638.38
2024-04-21T06:31:59.533Z,97638.69
2024-04-21T06:34:27.280Z,97645.31
2024-04-21T06:36:54.972Z,97637.19
2024-04-21T06:39:22.729Z,97642.88
2024-04-21T06:41:50.405Z,97636.09
2024-04-21T06:44:19.373Z,97634.19
2024-04-21T06:46:47.104Z,97642.78
2024-04-21T06:49:15.160Z,97644.31
2024-04-21T06:52:08.052Z,97650.88
2024-04-21T06:54:35.849Z,97651.22
2024-04-21T06:57:03.715Z,97652.03
2024-04-21T06:59:31.350Z,97651.28
2024-04-21T07:01:59.137Z,97649.63
2024-04-21T07:04:26.920Z,97646.97
2024-04-21T07:06:54.620Z,97659.03
2024-04-21T07:09:22.325Z,97653.88
2024-04-21T07:11:52.679Z,97664.63
2024-04-21T07:14:21.412Z,97657.88
2024-04-21T07:16:49.334Z,97661.56
2024-04-21T07:19:17.110Z,97654.47
2024-04-21T07:21:44.816Z,97660.19
2024-04-21T07:24:12.495Z,97649.56
2024-04-21T07:26:40.204Z,97651.31
2024-04-21T07:29:07.968Z,97638.63
2024-04-21T07:31:35.755Z,97636.75
2024-04-21T07:34:03.542Z,97635.94
2024-04-21T07:36:31.220Z,97648.28
2024-04-21T07:38:58.975Z,97642.56
2024-04-21T07:41:28.640Z,97646.78
2024-04-21T07:43:56.468Z,97653.09
2024-04-21T07:46:24.205Z,97652.25
2024-04-21T07:48:51.979Z,97646.78
2024-04-21T07:51:19.755Z,97650.31
2024-04-21T07:53:47.599Z,97642.44
2024-04-21T07:56:15.276Z,97651.47
2024-04-21T07:58:43.037Z,97652.19
2024-04-21T08:01:11.435Z,97652.53
2024-04-21T08:03:40.909Z,97657.28
2024-04-21T08:06:08.703Z,97661.47
2024-04-21T08:08:36.578Z,97664.22
2024-04-21T08:11:05.450Z,97664.53
2024-04-21T08:13:33.910Z,97663.78
2024-04-21T08:16:01.775Z,97669.41
2024-04-21T08:18:29.733Z,97664.56
2024-04-21T08:20:57.483Z,97660.28
2024-04-21T08:23:26.018Z,97656.47
2024-04-21T08:25:53.769Z,97649.16
2024-04-21T08:28:21.660Z,97664.22
2024-04-21T08:30:49.532Z,97655.38
2024-04-21T08:33:17.302Z,97659.84
2024-04-21T08:35:59.463Z,97665.03
2024-04-21T08:38:30.800Z,97666.88
2024-04-21T08:41:09.226Z,97670.91
2024-04-21T08:43:37.699Z,97664.91
2024-04-21T08:46:05.507Z,97667.09
2024-04-21T08:48:33.339Z,97670.31
2024-04-21T08:51:02.648Z,97681.59
2024-04-21T08:53:30.408Z,97679.50
2024-04-21T08:56:01.841Z,97666.38
2024-04-21T08:58:33.462Z,97673.50
2024-04-21T09:01:03.733Z,97668.06
2024-04-21T09:03:31.796Z,97675.75
2024-04-21T09:06:01.559Z,97676.31
2024-04-21T09:08:29.228Z,97666.84
2024-04-21T09:10:58.807Z,97669.94
2024-04-21T09:13:26.704Z,97660.44
2024-04-21T09:15:54.731Z,97662.84
2024-04-21T09:18:22.581Z,97672.44
2024-04-21T09:20:50.431Z,97665.63
2024-04-21T09:23:18.100Z,97664.09
2024-04-21T09:25:45.788Z,97666.63
2024-04-21T09:28:13.657Z,97662.13
2024-04-21T09:30:41.676Z,97662.13
2024-04-21T09:33:09.788Z,97673.00
2024-04-21T09:35:38.419Z,97670.66
2024-04-21T09:38:08.720Z,97676.91
2024-04-21T09:40:39.149Z,97670.78
2024-04-21T09:43:09.755Z,97674.28
2024-04-21T09:45:37.413Z,97681.38
2024-04-21T09:48:06.984Z,97674.94
2024-04-21T09:50:35.800Z,97678.72
2024-04-21T09:53:04.277Z,97671.34
2024-04-21T09:55:38.418Z,97659.91
2024-04-21T09:58:12.475Z,97668.00
2024-04-21T10:00:44.522Z,97667.16
2024-04-21T10:03:12.793Z,97661.84
2024-04-21T10:05:41.702Z,97661.72
2024-04-21T10:08:11.405Z,97658.50
2024-04-21T10:10:41.031Z,97652.13
2024-04-21T10:13:09.196Z,97640.13
2024-04-21T10:15:38.034Z,97648.88
2024-04-21T10:18:06.202Z,97647.50
2024-04-21T10:20:39.026Z,97645.81
2024-04-21T10:23:11.839Z,97647.50
2024-04-21T10:25:44.837Z,97643.84
2024-04-21T10:28:15.545Z,97641.34
2024-04-21T10:30:43.435Z,97642.28
2024-04-21T10:33:12.368Z,97644.53
2024-04-21T10:35:42.647Z,97644.91
2024-04-21T10:38:15.228Z,97642.66
2024-04-21T10:40:49.933Z,97652.13
2024-04-21T10:43:26.623Z,97629.38
2024-04-21T10:46:01.997Z,97638.47
2024-04-21T10:48:29.928Z,97642.66
2024-04-21T10:50:58.140Z,97633.50
2024-04-21T10:53:27.095Z,97631.03
2024-04-21T10:55:55.840Z,97641.13
2024-04-21T10:58:23.781Z,97648.34
2024-04-21T11:00:51.928Z,97624.03
2024-04-21T11:03:19.665Z,97639.81
2024-04-21T11:06:03.154Z,97633.97
2024-04-21T11:08:31.384Z,97633.63
2024-04-21T11:10:59.470Z,97627.38
2024-04-21T11:13:28.615Z,97629.91
2024-04-21T11:15:56.410Z,97628.94
2024-04-21T11:18:24.253Z,97631.75
2024-04-21T11:20:52.379Z,97628.63
2024-04-21T11:23:20.631Z,97626.97
2024-04-21T11:25:49.134Z,97635.13
2024-04-21T11:28:20.290Z,97620.38
2024-04-21T11:30:48.704Z,97623.47
2024-04-21T11:33:16.561Z,97634.63
2024-04-21T11:35:45.396Z,97633.38
2024-04-21T11:38:13.123Z,97623.72
2024-04-21T11:40:41.067Z,97627.69
2024-04-21T11:43:12.390Z,97642.09
2024-04-21T11:45:44.384Z,97636.72
2024-04-21T11:48:12.503Z,97629.06
2024-04-21T11:50:40.390Z,97631.63
2024-04-21T11:53:08.611Z,97626.41
2024-04-21T11:55:36.364Z,97635.13
2024-04-21T11:58:05.212Z,97638.47
2024-04-21T12:00:33.228Z,97640.22
2024-04-21T12:03:01.049Z,97645.91
2024-04-21T12:05:28.817Z,97646.41
2024-04-21T12:07:56.485Z,97653.88
2024-04-21T12:10:24.296Z,97646.66
2024-04-21T12:12:52.127Z,97643.81
2024-04-21T12:15:20.090Z,97643.59
2024-04-21T12:17:47.965Z,97642.44
2024-04-21T12:20:16.079Z,97640.00
2024-04-21T12:22:49.953Z,97643.94
2024-04-21T12:25:17.727Z,97649.13
2024-04-21T12:27:45.442Z,97655.84
2024-04-21T12:30:13.570Z,97650.84
2024-04-21T12:32:41.692Z,97644.41
2024-04-21T12:35:09.435Z,97650.06
2024-04-21T12:37:37.208Z,97650.00
2024-04-21T12:40:05.413Z,97644.56
2024-04-21T12:42:33.218Z,97647.81
2024-04-21T12:45:00.954Z,97649.94
2024-04-21T12:47:28.706Z,97647.69
2024-04-21T12:49:56.383Z,97647.13
2024-04-21T12:52:24.451Z,97643.41
2024-04-21T12:54:52.131Z,97641.06
2024-04-21T12:57:19.823Z,97641.00
2024-04-21T12:59:47.591Z,97630.44
2024-04-21T13:02:18.327Z,97629.22
2024-04-21T13:04:46.394Z,97634.06
2024-04-21T13:07:14.324Z,97628.75
2024-04-21T13:09:42.067Z,97628.66
2024-04-21T13:12:09.959Z,97630.00
2024-04-21T13:14:37.788Z,97641.63
2024-04-21T13:17:05.811Z,97635.59
2024-04-21T13:19:33.596Z,97640.75
2024-04-21T13:22:01.323Z,97640.59
2024-04-21T13:24:29.012Z,97632.91
2024-04-21T13:26:56.676Z,97638.38
2024-04-21T13:29:24.456Z,97635.34
2024-04-21T13:31:52.111Z,97636.94
2024-04-21T13:34:19.834Z,97650.56
2024-04-21T13:36:47.704Z,97650.25
2024-04-21T13:39:15.367Z,97653.06
2024-04-21T13:41:43.147Z,97661.69
2024-04-21T13:44:10.928Z,97657.09
2024-04-21T13:46:38.739Z,97672.81
2024-04-21T13:49:06.466Z,97656.06
2024-04-21T13:51:34.230Z,97664.41
2024-04-21T13:54:02.504Z,97670.63
2024-04-21T13:56:30.469Z,97674.84
2024-04-21T13:58:58.429Z,97674.06
2024-04-21T14:01:26.354Z,97674.31
2024-04-21T14:03:54.129Z,97674.31
2024-04-21T14:06:22.725Z,97665.91
2024-04-21T14:08:50.461Z,97667.84
2024-04-21T14:11:18.258Z,97682.16
2024-04-21T14:13:46.051Z,97685.16
2024-04-21T14:16:14.156Z,97683.09
2024-04-21T14:18:41.919Z,97691.91
2024-04-21T14:21:09.626Z,97697.53
2024-04-21T14:23:37.434Z,97696.16
2024-04-21T14:26:05.167Z,97690.53
2024-04-21T14:28:33.259Z,97696.38
2024-04-21T14:31:01.735Z,97705.22
2024-04-21T14:33:29.746Z,97703.72
2024-04-21T14:35:58.258Z,97707.53
2024-04-21T14:38:26.013Z,97707.88
2024-04-21T14:40:53.664Z,97706.53
2024-04-21T14:43:21.987Z,97717.03
2024-04-21T14:45:50.045Z,97716.81
2024-04-21T14:48:19.075Z,97723.09
2024-04-21T14:50:56.723Z,97718.75
2024-04-21T14:53:25.744Z,97719.31
2024-04-21T14:56:01.918Z,97721.94
2024-04-21T14:58:29.688Z,97729.16
2024-04-21T15:00:57.531Z,97735.25
2024-04-21T15:03:25.464Z,97731.19
2024-04-21T15:05:53.153Z,97735.66
2024-04-21T15:08:21.058Z,97735.91
2024-04-21T15:10:48.984Z,97734.25
2024-04-21T15:13:16.760Z,97737.59
2024-04-21T15:15:44.411Z,97742.47
2024-04-21T15:18:12.261Z,97737.31
2024-04-21T15:20:39.953Z,97741.34
2024-04-21T15:23:07.634Z,97745.97
2024-04-21T15:25:35.659Z,97743.16
2024-04-21T15:28:03.692Z,97744.00
2024-04-21T15:30:31.605Z,97745.69
2024-04-21T15:32:59.435Z,97745.59
2024-04-21T15:35:27.301Z,97749.63
2024-04-21T15:37:55.233Z,97754.50
2024-04-21T15:40:23.081Z,97756.19
2024-04-21T15:42:50.794Z,97756.91
2024-04-21T15:45:19.346Z,97760.56
2024-04-21T15:47:47.239Z,97761.81
2024-04-21T15:50:15.018Z,97765.00
2024-04-21T15:52:43.206Z,97759.00
2024-04-21T15:55:14.103Z,97760.69
2024-04-21T15:57:42.229Z,97765.00
2024-04-21T16:00:10.379Z,97770.88
2024-04-21T16:02:38.654Z,97762.81
2024-04-21T16:05:07.852Z,97765.72
2024-04-21T16:07:35.719Z,97768.53
2024-04-21T16:10:04.088Z,97774.66
2024-04-21T16:12:31.903Z,97775.19
2024-04-21T16:14:59.762Z,97770.84
2024-04-21T16:17:27.585Z,97772.94
2024-04-21T16:19:55.378Z,97778.13
2024-04-21T16:22:23.182Z,97778.69
2024-04-21T16:24:50.947Z,97782.72
2024-04-21T16:27:18.695Z,97791.09
2024-04-21T16:29:46.411Z,97793.72
2024-04-21T16:32:14.123Z,97785.91
2024-04-21T16:34:42.803Z,97792.38
2024-04-21T16:37:10.943Z,97792.63
2024-04-21T16:39:39.023Z,97797.72
2024-04-21T16:42:07.526Z,97801.19
2024-04-21T16:44:35.692Z,97808.66
2024-04-21T16:47:05.416Z,97808.22
2024-04-21T16:49:33.579Z,97804.50
2024-04-21T16:52:02.973Z,97803.16
2024-04-21T16:54:31.187Z,97803.84
2024-04-21T16:57:07.202Z,97809.72
2024-04-21T16:59:43.190Z,97809.75
2024-04-21T17:02:11.329Z,97817.88
2024-04-21T17:04:42.267Z,97818.63
2024-04-21T17:07:14.027Z,97824.94
2024-04-21T17:09:46.237Z,97828.56
2024-04-21T17:12:16.815Z,97829.13
2024-04-21T17:14:44.923Z,97833.34
2024-04-21T17:17:12.898Z,97836.44
2024-04-21T17:19:40.654Z,97835.91
2024-04-21T17:22:08.400Z,97838.19
2024-04-21T17:24:36.215Z,97829.41
2024-04-21T17:27:04.379Z,97842.34
2024-04-21T17:29:32.095Z,97841.59
2024-04-21T17:31:59.975Z,97849.38
2024-04-21T17:34:27.749Z,97848.66
2024-04-21T17:36:55.494Z,97853.25
2024-04-21T17:39:23.360Z,97854.66
2024-04-21T17:41:51.027Z,97854.41
2024-04-21T17:44:18.785Z,97857.31
2024-04-21T17:46:53.123Z,97856.94
2024-04-21T17:49:21.015Z,97855.00
2024-04-21T17:51:49.344Z,97858.19
2024-04-21T17:54:21.810Z,97864.59
2024-04-21T17:56:53.304Z,97862.50
2024-04-21T17:59:21.359Z,97871.81
2024-04-21T18:01:49.649Z,97872.91
2024-04-21T18:04:17.605Z,97876.38
2024-04-21T18:06:45.574Z,97877.94
2024-04-21T18:09:13.316Z,97873.94
2024-04-21T18:11:41.065Z,97880.25
2024-04-21T18:14:09.222Z,97877.22
2024-04-21T18:16:37.101Z,97882.13
2024-04-21T18:19:04.904Z,97881.16
2024-04-21T18:21:32.663Z,97880.66
2024-04-21T18:24:00.313Z,97886.16
2024-04-21T18:26:27.994Z,97878.94
2024-04-21T18:28:55.727Z,97883.81
2024-04-21T18:31:23.486Z,97884.09
2024-04-21T18:33:51.314Z,97889.88
2024-04-21T18:36:19.091Z,97899.94
2024-04-21T18:38:46.799Z,97901.03
2024-04-21T18:41:14.770Z,97896.25
2024-04-21T18:43:42.502Z,97899.38
2024-04-21T18:46:10.322Z,97906.13
2024-04-21T18:48:39.166Z,97908.06
2024-04-21T18:51:07.225Z,97907.09
2024-04-21T18:53:35.341Z,97906.72
2024-04-21T18:56:05.909Z,97914.53
2024-04-21T18:58:34.763Z,97915.34
2024-04-21T19:01:09.062Z,97917.59
2024-04-21T19:03:36.972Z,97922.88
2024-04-21T19:06:16.205Z,97923.75
2024-04-21T19:08:43.908Z,97928.44
2024-04-21T19:11:12.161Z,97926.13
2024-04-21T19:13:41.527Z,97925.28
2024-04-21T19:16:11.512Z,97926.25
2024-04-21T19:18:40.447Z,97931.81
2024-04-21T19:21:09.362Z,97929.03
2024-04-21T19:23:38.493Z,97927.09
2024-04-21T19:26:06.190Z,97936.69
2024-04-21T19:28:35.841Z,97938.97
2024-04-21T19:31:03.942Z,97938.81
2024-04-21T19:33:31.698Z,97947.16
2024-04-21T19:35:59.378Z,97936.69
2024-04-21T19:38:27.111Z,97941.03
2024-04-21T19:40:54.798Z,97940.16
2024-04-21T19:43:23.439Z,97944.50
2024-04-21T19:45:54.689Z,97951.09
2024-04-21T19:48:24.430Z,97956.84
2024-04-21T19:51:01.759Z,97952.41
2024-04-21T19:53:30.001Z,97956.97
2024-04-21T19:55:59.832Z,97961.56
2024-04-21T19:58:27.583Z,97959.63
2024-04-21T20:01:02.785Z,97959.75
2024-04-21T20:03:30.711Z,97961.44
2024-04-21T20:05:58.432Z,97962.63
2024-04-21T20:08:26.115Z,97969.53
2024-04-21T20:10:53.907Z,97962.81
2024-04-21T20:13:21.952Z,97964.75
2024-04-21T20:16:14.793Z,97965.19
2024-04-21T20:18:44.640Z,97964.16
2024-04-21T20:21:12.676Z,97956.09
2024-04-21T20:23:40.456Z,97971.00
2024-04-21T20:26:14.328Z,97971.50
2024-04-21T20:28:43.079Z,97971.38
2024-04-21T20:31:21.469Z,97972.84
2024-04-21T20:33:49.297Z,97976.06
2024-04-21T20:36:22.416Z,97976.78
2024-04-21T20:38:52.022Z,97973.31
2024-04-21T20:41:21.416Z,97983.50
2024-04-21T20:43:51.786Z,97989.41
2024-04-21T20:46:22.311Z,97987.88
2024-04-21T20:48:51.692Z,97993.16
2024-04-21T20:51:19.659Z,97993.25
2024-04-21T20:53:47.350Z,97997.13
2024-04-21T20:56:15.075Z,98002.16
2024-04-21T20:58:50.233Z,98004.22
2024-04-21T21:01:20.887Z,97997.13
2024-04-21T21:03:50.037Z,98002.91
2024-04-21T21:06:20.065Z,98000.69
2024-04-21T21:08:48.668Z,97997.94
2024-04-21T21:11:16.699Z,97996.59
2024-04-21T21:13:44.765Z,97996.47
2024-04-21T21:16:12.676Z,97999.56
2024-04-21T21:18:40.415Z,97997.78
2024-04-21T21:21:08.423Z,98001.16
2024-04-21T21:23:36.190Z,98001.97
2024-04-21T21:26:04.128Z,97996.44
2024-04-21T21:28:31.949Z,97999.22
2024-04-21T21:31:02.604Z,98003.41
2024-04-21T21:33:30.369Z,98000.50
2024-04-21T21:35:58.648Z,97996.88
2024-04-21T21:38:29.748Z,98006.63
2024-04-21T21:40:57.828Z,98008.28
2024-04-21T21:43:25.916Z,98009.75
2024-04-21T21:45:53.728Z,98006.25
2024-04-21T21:48:21.500Z,98006.97
2024-04-21T21:50:49.282Z,97996.78
2024-04-21T21:53:17.071Z,97997.41
2024-04-21T21:55:45.021Z,98000.16
2024-04-21T21:58:12.847Z,98006.28
2024-04-21T22:00:41.061Z,98006.16
2024-04-21T22:03:10.699Z,98000.78
2024-04-21T22:05:39.496Z,97996.38
2024-04-21T22:08:07.600Z,97992.72
2024-04-21T22:10:35.428Z,97998.84
2024-04-21T22:13:03.302Z,97999.09
2024-04-21T22:15:30.967Z,97997.50
2024-04-21T22:17:58.990Z,97986.22
2024-04-21T22:20:26.781Z,98001.06
2024-04-21T22:22:54.537Z,97999.63
2024-04-21T22:25:22.394Z,98001.16
2024-04-21T22:27:51.583Z,98002.97
2024-04-21T22:30:19.347Z,97992.25
2024-04-21T22:32:48.180Z,98002.00
2024-04-21T22:35:17.611Z,97995.50
2024-04-21T22:37:45.565Z,97994.03
2024-04-21T22:40:13.321Z,97999.91
2024-04-21T22:42:43.325Z,97995.69
2024-04-21T22:45:11.649Z,97999.31
2024-04-21T22:47:40.601Z,98000.53
2024-04-21T22:50:09.426Z,97998.03
2024-04-21T22:52:37.259Z,97995.50
2024-04-21T22:55:05.385Z,97999.63
2024-04-21T22:57:33.124Z,98004.75
2024-04-21T23:00:00.881Z,98002.63
2024-04-21T23:02:28.847Z,98009.97
2024-04-21T23:04:56.566Z,98008.41
2024-04-21T23:07:24.370Z,98006.59
2024-04-21T23:09:52.151Z,98013.59
2024-04-21T23:12:20.794Z,98007.69
2024-04-21T23:14:48.551Z,98005.06
2024-04-21T23:17:16.358Z,98011.28
2024-04-21T23:19:44.055Z,98011.88
2024-04-21T23:22:12.470Z,98013.56
2024-04-21T23:24:40.150Z,98018.38
2024-04-21T23:27:07.834Z,98015.41
2024-04-21T23:29:35.483Z,98020.53
2024-04-21T23:32:03.373Z,98018.75
2024-04-21T23:34:31.079Z,98017.78
2024-04-21T23:36:58.904Z,98013.94
2024-04-21T23:39:26.650Z,98013.38
2024-04-21T23:41:54.394Z,98016.13
2024-04-21T23:44:22.182Z,98004.56
2024-04-21T23:46:50.041Z,98016.97
2024-04-21T23:49:17.890Z,98009.03
2024-04-21T23:51:45.678Z,97995.81
2024-04-21T23:54:13.405Z,97999.28
2024-04-21T23:56:41.694Z,97997.38
2024-04-21T23:59:09.372Z,98002.28
